sensor_id;sensor_type;location;lat;lon;timestamp;pressure;altitude;pressure_sealevel;temperature;humidity
46682;BME280;34101;53.430;-2.224;2023-04-03T00:01:19;102777.67;;;6.74;57.26
46682;BME280;34101;53.430;-2.224;2023-04-03T00:03:48;102780.32;;;6.70;57.43
46682;BME280;34101;53.430;-2.224;2023-04-03T00:06:16;102778.78;;;6.74;57.57
46682;BME280;34101;53.430;-2.224;2023-04-03T00:08:43;102780.95;;;6.79;57.76
46682;BME280;34101;53.430;-2.224;2023-04-03T00:11:11;102783.28;;;6.79;57.87
46682;BME280;34101;53.430;-2.224;2023-04-03T00:13:40;102785.85;;;6.76;57.79
46682;BME280;34101;53.430;-2.224;2023-04-03T00:16:08;102789.33;;;6.67;58.24
46682;BME280;34101;53.430;-2.224;2023-04-03T00:18:38;102790.49;;;6.64;58.57
46682;BME280;34101;53.430;-2.224;2023-04-03T00:21:07;102790.19;;;6.65;58.38
46682;BME280;34101;53.430;-2.224;2023-04-03T00:23:35;102789.48;;;6.68;58.19
46682;BME280;34101;53.430;-2.224;2023-04-03T00:26:03;102792.01;;;6.55;58.47
46682;BME280;34101;53.430;-2.224;2023-04-03T00:28:32;102791.39;;;6.59;58.36
46682;BME280;34101;53.430;-2.224;2023-04-03T00:31:00;102792.83;;;6.61;58.33
46682;BME280;34101;53.430;-2.224;2023-04-03T00:33:27;102789.39;;;6.60;58.40
46682;BME280;34101;53.430;-2.224;2023-04-03T00:35:54;102789.48;;;6.58;58.54
46682;BME280;34101;53.430;-2.224;2023-04-03T00:38:22;102791.53;;;6.58;58.49
46682;BME280;34101;53.430;-2.224;2023-04-03T00:40:50;102792.12;;;6.56;58.36
46682;BME280;34101;53.430;-2.224;2023-04-03T00:43:20;102786.98;;;6.52;58.38
46682;BME280;34101;53.430;-2.224;2023-04-03T00:45:49;102781.31;;;6.42;58.29
46682;BME280;34101;53.430;-2.224;2023-04-03T00:48:20;102779.34;;;6.33;58.61
46682;BME280;34101;53.430;-2.224;2023-04-03T00:50:49;102780.91;;;6.34;58.52
46682;BME280;34101;53.430;-2.224;2023-04-03T00:53:21;102779.70;;;6.31;58.58
46682;BME280;34101;53.430;-2.224;2023-04-03T00:55:51;102784.98;;;6.27;58.64
46682;BME280;34101;53.430;-2.224;2023-04-03T00:58:22;102782.97;;;6.23;58.73
46682;BME280;34101;53.430;-2.224;2023-04-03T01:00:55;102780.61;;;6.22;58.75
46682;BME280;34101;53.430;-2.224;2023-04-03T01:03:24;102779.40;;;6.19;58.78
46682;BME280;34101;53.430;-2.224;2023-04-03T01:05:52;102782.84;;;6.12;58.76
46682;BME280;34101;53.430;-2.224;2023-04-03T01:08:20;102781.78;;;5.97;59.07
46682;BME280;34101;53.430;-2.224;2023-04-03T01:10:48;102787.47;;;5.96;59.09
46682;BME280;34101;53.430;-2.224;2023-04-03T01:13:25;102792.14;;;5.93;59.06
46682;BME280;34101;53.430;-2.224;2023-04-03T01:15:52;102787.80;;;5.78;59.54
46682;BME280;34101;53.430;-2.224;2023-04-03T01:18:22;102790.94;;;5.81;59.25
46682;BME280;34101;53.430;-2.224;2023-04-03T01:21:16;102785.55;;;5.77;59.47
46682;BME280;34101;53.430;-2.224;2023-04-03T01:24:02;102790.26;;;5.69;59.79
46682;BME280;34101;53.430;-2.224;2023-04-03T01:26:32;102790.06;;;5.61;59.88
46682;BME280;34101;53.430;-2.224;2023-04-03T01:29:00;102788.08;;;5.61;59.90
46682;BME280;34101;53.430;-2.224;2023-04-03T01:31:39;102787.56;;;5.65;59.75
46682;BME280;34101;53.430;-2.224;2023-04-03T01:34:06;102782.14;;;5.43;60.51
46682;BME280;34101;53.430;-2.224;2023-04-03T01:36:34;102779.47;;;5.54;60.33
46682;BME280;34101;53.430;-2.224;2023-04-03T01:39:02;102780.25;;;5.46;60.53
46682;BME280;34101;53.430;-2.224;2023-04-03T01:41:30;102775.11;;;5.48;60.43
46682;BME280;34101;53.430;-2.224;2023-04-03T01:43:57;102777.28;;;5.46;60.64
46682;BME280;34101;53.430;-2.224;2023-04-03T01:46:25;102779.07;;;5.57;60.31
46682;BME280;34101;53.430;-2.224;2023-04-03T01:48:53;102779.26;;;5.62;60.12
46682;BME280;34101;53.430;-2.224;2023-04-03T01:51:21;102775.39;;;5.48;60.48
46682;BME280;34101;53.430;-2.224;2023-04-03T01:53:53;102771.20;;;5.43;60.65
46682;BME280;34101;53.430;-2.224;2023-04-03T01:56:21;102769.29;;;5.51;60.48
46682;BME280;34101;53.430;-2.224;2023-04-03T01:58:48;102767.39;;;5.35;60.94
46682;BME280;34101;53.430;-2.224;2023-04-03T02:01:15;102765.21;;;5.39;60.91
46682;BME280;34101;53.430;-2.224;2023-04-03T02:03:43;102765.56;;;5.42;60.65
46682;BME280;34101;53.430;-2.224;2023-04-03T02:06:11;102761.34;;;5.34;61.03
46682;BME280;34101;53.430;-2.224;2023-04-03T02:08:38;102760.40;;;5.41;60.75
46682;BME280;34101;53.430;-2.224;2023-04-03T02:11:06;102761.40;;;5.41;60.79
46682;BME280;34101;53.430;-2.224;2023-04-03T02:13:34;102761.76;;;5.33;60.97
46682;BME280;34101;53.430;-2.224;2023-04-03T02:16:07;102760.91;;;5.26;61.27
46682;BME280;34101;53.430;-2.224;2023-04-03T02:18:35;102761.55;;;5.25;61.33
46682;BME280;34101;53.430;-2.224;2023-04-03T02:21:03;102762.77;;;5.20;61.49
46682;BME280;34101;53.430;-2.224;2023-04-03T02:23:30;102764.31;;;5.30;61.34
46682;BME280;34101;53.430;-2.224;2023-04-03T02:26:07;102764.10;;;5.29;61.16
46682;BME280;34101;53.430;-2.224;2023-04-03T02:28:35;102767.09;;;5.28;61.31
46682;BME280;34101;53.430;-2.224;2023-04-03T02:31:03;102764.23;;;5.19;61.55
46682;BME280;34101;53.430;-2.224;2023-04-03T02:33:31;102765.74;;;5.30;61.53
46682;BME280;34101;53.430;-2.224;2023-04-03T02:35:59;102766.16;;;5.34;61.50
46682;BME280;34101;53.430;-2.224;2023-04-03T02:38:26;102766.01;;;5.38;61.53
46682;BME280;34101;53.430;-2.224;2023-04-03T02:41:00;102765.04;;;5.40;61.45
46682;BME280;34101;53.430;-2.224;2023-04-03T02:43:27;102765.65;;;5.35;61.52
46682;BME280;34101;53.430;-2.224;2023-04-03T02:45:54;102761.89;;;5.25;61.64
46682;BME280;34101;53.430;-2.224;2023-04-03T02:48:21;102763.21;;;5.32;61.50
46682;BME280;34101;53.430;-2.224;2023-04-03T02:50:49;102764.04;;;5.26;61.44
46682;BME280;34101;53.430;-2.224;2023-04-03T02:53:17;102764.19;;;5.22;61.58
46682;BME280;34101;53.430;-2.224;2023-04-03T02:55:45;102760.92;;;5.19;61.48
46682;BME280;34101;53.430;-2.224;2023-04-03T02:58:12;102759.19;;;5.16;61.70
46682;BME280;34101;53.430;-2.224;2023-04-03T03:00:40;102756.88;;;5.20;61.73
46682;BME280;34101;53.430;-2.224;2023-04-03T03:03:08;102755.91;;;5.23;61.66
46682;BME280;34101;53.430;-2.224;2023-04-03T03:05:36;102755.64;;;5.22;61.77
46682;BME280;34101;53.430;-2.224;2023-04-03T03:08:03;102756.96;;;5.24;61.63
46682;BME280;34101;53.430;-2.224;2023-04-03T03:10:30;102755.77;;;5.18;61.81
46682;BME280;34101;53.430;-2.224;2023-04-03T03:12:58;102753.55;;;5.20;61.85
46682;BME280;34101;53.430;-2.224;2023-04-03T03:15:30;102751.98;;;5.18;61.85
46682;BME280;34101;53.430;-2.224;2023-04-03T03:17:57;102752.73;;;5.13;61.79
46682;BME280;34101;53.430;-2.224;2023-04-03T03:20:24;102748.23;;;5.13;61.89
46682;BME280;34101;53.430;-2.224;2023-04-03T03:22:52;102745.07;;;5.11;61.76
46682;BME280;34101;53.430;-2.224;2023-04-03T03:25:19;102744.92;;;5.07;61.84
46682;BME280;34101;53.430;-2.224;2023-04-03T03:27:47;102741.58;;;5.05;61.82
46682;BME280;34101;53.430;-2.224;2023-04-03T03:30:15;102744.63;;;5.02;61.82
46682;BME280;34101;53.430;-2.224;2023-04-03T03:32:43;102742.44;;;4.97;61.98
46682;BME280;34101;53.430;-2.224;2023-04-03T03:35:09;102741.35;;;4.96;62.06
46682;BME280;34101;53.430;-2.224;2023-04-03T03:37:37;102743.92;;;4.97;62.16
46682;BME280;34101;53.430;-2.224;2023-04-03T03:40:06;102742.43;;;4.99;62.30
46682;BME280;34101;53.430;-2.224;2023-04-03T03:42:33;102740.86;;;4.95;62.39
46682;BME280;34101;53.430;-2.224;2023-04-03T03:45:00;102744.97;;;4.93;62.73
46682;BME280;34101;53.430;-2.224;2023-04-03T03:47:28;102743.35;;;4.91;62.79
46682;BME280;34101;53.430;-2.224;2023-04-03T03:49:55;102742.73;;;4.89;62.97
46682;BME280;34101;53.430;-2.224;2023-04-03T03:52:23;102743.29;;;4.87;63.14
46682;BME280;34101;53.430;-2.224;2023-04-03T03:54:50;102740.69;;;4.84;63.20
46682;BME280;34101;53.430;-2.224;2023-04-03T03:57:18;102742.46;;;4.82;63.10
46682;BME280;34101;53.430;-2.224;2023-04-03T03:59:45;102744.59;;;4.82;63.18
46682;BME280;34101;53.430;-2.224;2023-04-03T04:02:14;102744.91;;;4.78;63.13
46682;BME280;34101;53.430;-2.224;2023-04-03T04:04:41;102745.17;;;4.75;63.21
46682;BME280;34101;53.430;-2.224;2023-04-03T04:07:09;102748.41;;;4.75;63.21
46682;BME280;34101;53.430;-2.224;2023-04-03T04:09:35;102747.36;;;4.72;63.23
46682;BME280;34101;53.430;-2.224;2023-04-03T04:12:03;102748.77;;;4.71;63.21
46682;BME280;34101;53.430;-2.224;2023-04-03T04:14:30;102745.88;;;4.68;63.29
46682;BME280;34101;53.430;-2.224;2023-04-03T04:16:58;102743.61;;;4.69;63.04
46682;BME280;34101;53.430;-2.224;2023-04-03T04:19:25;102743.74;;;4.66;63.01
46682;BME280;34101;53.430;-2.224;2023-04-03T04:21:53;102738.72;;;4.61;63.03
46682;BME280;34101;53.430;-2.224;2023-04-03T04:24:20;102738.43;;;4.56;63.07
46682;BME280;34101;53.430;-2.224;2023-04-03T04:26:48;102734.05;;;4.53;63.18
46682;BME280;34101;53.430;-2.224;2023-04-03T04:29:15;102730.80;;;4.51;63.16
46682;BME280;34101;53.430;-2.224;2023-04-03T04:31:48;102729.99;;;4.48;63.22
46682;BME280;34101;53.430;-2.224;2023-04-03T04:34:15;102721.23;;;4.48;63.25
46682;BME280;34101;53.430;-2.224;2023-04-03T04:36:42;102719.04;;;4.46;63.33
46682;BME280;34101;53.430;-2.224;2023-04-03T04:39:09;102719.56;;;4.47;63.27
46682;BME280;34101;53.430;-2.224;2023-04-03T04:41:37;102720.42;;;4.47;63.33
46682;BME280;34101;53.430;-2.224;2023-04-03T04:44:04;102722.57;;;4.39;63.58
46682;BME280;34101;53.430;-2.224;2023-04-03T04:46:32;102723.93;;;4.39;63.70
46682;BME280;34101;53.430;-2.224;2023-04-03T04:49:00;102723.59;;;4.38;63.78
46682;BME280;34101;53.430;-2.224;2023-04-03T04:51:27;102722.24;;;4.37;63.96
46682;BME280;34101;53.430;-2.224;2023-04-03T04:53:55;102722.56;;;4.36;64.05
46682;BME280;34101;53.430;-2.224;2023-04-03T04:56:22;102723.45;;;4.36;64.14
46682;BME280;34101;53.430;-2.224;2023-04-03T04:58:49;102724.43;;;4.38;64.07
46682;BME280;34101;53.430;-2.224;2023-04-03T05:01:17;102727.52;;;4.38;64.14
46682;BME280;34101;53.430;-2.224;2023-04-03T05:03:44;102726.67;;;4.35;64.29
46682;BME280;34101;53.430;-2.224;2023-04-03T05:06:12;102728.62;;;4.37;64.37
46682;BME280;34101;53.430;-2.224;2023-04-03T05:08:39;102726.02;;;4.36;64.44
46682;BME280;34101;53.430;-2.224;2023-04-03T05:11:07;102727.95;;;4.35;64.55
46682;BME280;34101;53.430;-2.224;2023-04-03T05:13:35;102724.72;;;4.33;64.82
46682;BME280;34101;53.430;-2.224;2023-04-03T05:16:02;102729.73;;;4.32;64.63
46682;BME280;34101;53.430;-2.224;2023-04-03T05:18:29;102729.65;;;4.28;64.92
46682;BME280;34101;53.430;-2.224;2023-04-03T05:20:57;102734.99;;;4.26;65.01
46682;BME280;34101;53.430;-2.224;2023-04-03T05:23:25;102735.11;;;4.24;65.11
46682;BME280;34101;53.430;-2.224;2023-04-03T05:25:53;102739.70;;;4.21;65.35
46682;BME280;34101;53.430;-2.224;2023-04-03T05:28:19;102739.60;;;4.20;65.44
46682;BME280;34101;53.430;-2.224;2023-04-03T05:30:54;102741.96;;;4.17;65.47
46682;BME280;34101;53.430;-2.224;2023-04-03T05:33:22;102745.23;;;4.13;65.81
46682;BME280;34101;53.430;-2.224;2023-04-03T05:35:49;102750.95;;;4.10;65.76
46682;BME280;34101;53.430;-2.224;2023-04-03T05:38:16;102753.58;;;4.08;65.77
46682;BME280;34101;53.430;-2.224;2023-04-03T05:40:44;102752.33;;;4.02;65.91
46682;BME280;34101;53.430;-2.224;2023-04-03T05:43:12;102752.67;;;4.02;66.25
46682;BME280;34101;53.430;-2.224;2023-04-03T05:45:39;102752.21;;;4.01;66.11
46682;BME280;34101;53.430;-2.224;2023-04-03T05:48:06;102750.66;;;3.98;66.09
46682;BME280;34101;53.430;-2.224;2023-04-03T05:50:34;102750.71;;;3.96;66.40
46682;BME280;34101;53.430;-2.224;2023-04-03T05:53:02;102755.41;;;3.97;66.38
46682;BME280;34101;53.430;-2.224;2023-04-03T05:55:30;102754.99;;;3.96;66.34
46682;BME280;34101;53.430;-2.224;2023-04-03T05:57:58;102754.32;;;3.97;66.26
46682;BME280;34101;53.430;-2.224;2023-04-03T06:00:25;102758.03;;;3.98;66.83
46682;BME280;34101;53.430;-2.224;2023-04-03T06:02:53;102755.74;;;4.01;66.53
46682;BME280;34101;53.430;-2.224;2023-04-03T06:05:20;102754.80;;;4.03;66.38
46682;BME280;34101;53.430;-2.224;2023-04-03T06:07:48;102755.01;;;4.04;66.31
46682;BME280;34101;53.430;-2.224;2023-04-03T06:10:16;102755.30;;;4.06;66.29
46682;BME280;34101;53.430;-2.224;2023-04-03T06:12:43;102759.63;;;4.07;66.38
46682;BME280;34101;53.430;-2.224;2023-04-03T06:15:10;102754.99;;;4.09;66.17
46682;BME280;34101;53.430;-2.224;2023-04-03T06:17:38;102750.58;;;4.11;66.01
46682;BME280;34101;53.430;-2.224;2023-04-03T06:20:06;102751.29;;;4.15;65.94
46682;BME280;34101;53.430;-2.224;2023-04-03T06:22:34;102752.62;;;4.17;66.06
46682;BME280;34101;53.430;-2.224;2023-04-03T06:25:02;102752.67;;;4.20;66.03
46682;BME280;34101;53.430;-2.224;2023-04-03T06:27:35;102753.43;;;4.27;65.93
46682;BME280;34101;53.430;-2.224;2023-04-03T06:30:03;102753.87;;;4.28;66.06
46682;BME280;34101;53.430;-2.224;2023-04-03T06:32:30;102748.94;;;4.36;66.05
46682;BME280;34101;53.430;-2.224;2023-04-03T06:34:58;102754.46;;;4.44;66.08
46682;BME280;34101;53.430;-2.224;2023-04-03T06:37:26;102751.26;;;4.53;65.95
46682;BME280;34101;53.430;-2.224;2023-04-03T06:39:53;102752.34;;;4.62;65.97
46682;BME280;34101;53.430;-2.224;2023-04-03T06:42:20;102753.10;;;4.73;66.05
46682;BME280;34101;53.430;-2.224;2023-04-03T06:44:48;102751.73;;;4.82;65.44
46682;BME280;34101;53.430;-2.224;2023-04-03T06:47:16;102748.64;;;4.85;65.19
46682;BME280;34101;53.430;-2.224;2023-04-03T06:49:44;102749.21;;;4.92;65.16
46682;BME280;34101;53.430;-2.224;2023-04-03T06:52:11;102748.13;;;5.02;65.82
46682;BME280;34101;53.430;-2.224;2023-04-03T06:54:40;102748.38;;;5.12;65.27
46682;BME280;34101;53.430;-2.224;2023-04-03T06:57:07;102748.71;;;5.20;64.97
46682;BME280;34101;53.430;-2.224;2023-04-03T06:59:36;102746.01;;;5.27;64.85
46682;BME280;34101;53.430;-2.224;2023-04-03T07:02:03;102746.60;;;5.35;64.42
46682;BME280;34101;53.430;-2.224;2023-04-03T07:04:36;102745.66;;;5.38;64.39
46682;BME280;34101;53.430;-2.224;2023-04-03T07:07:03;102742.01;;;5.48;64.08
46682;BME280;34101;53.430;-2.224;2023-04-03T07:09:31;102744.41;;;5.57;63.78
46682;BME280;34101;53.430;-2.224;2023-04-03T07:11:58;102743.61;;;5.43;63.54
46682;BME280;34101;53.430;-2.224;2023-04-03T07:14:26;102743.87;;;5.53;63.45
46682;BME280;34101;53.430;-2.224;2023-04-03T07:16:53;102744.79;;;5.65;63.23
46682;BME280;34101;53.430;-2.224;2023-04-03T07:19:21;102742.07;;;5.68;63.05
46682;BME280;34101;53.430;-2.224;2023-04-03T07:21:53;102739.04;;;5.89;63.11
46682;BME280;34101;53.430;-2.224;2023-04-03T07:24:21;102740.76;;;5.89;62.95
46682;BME280;34101;53.430;-2.224;2023-04-03T07:26:49;102738.43;;;6.06;62.47
46682;BME280;34101;53.430;-2.224;2023-04-03T07:29:17;102740.39;;;6.10;62.10
46682;BME280;34101;53.430;-2.224;2023-04-03T07:31:44;102741.33;;;6.18;61.56
46682;BME280;34101;53.430;-2.224;2023-04-03T07:34:11;102744.21;;;6.32;61.83
46682;BME280;34101;53.430;-2.224;2023-04-03T07:36:39;102739.74;;;6.08;61.43
46682;BME280;34101;53.430;-2.224;2023-04-03T07:39:07;102742.20;;;6.28;61.27
46682;BME280;34101;53.430;-2.224;2023-04-03T07:41:35;102748.97;;;6.44;60.91
46682;BME280;34101;53.430;-2.224;2023-04-03T07:44:02;102742.86;;;6.49;60.30
46682;BME280;34101;53.430;-2.224;2023-04-03T07:46:30;102743.91;;;6.64;60.11
46682;BME280;34101;53.430;-2.224;2023-04-03T07:48:57;102743.94;;;6.62;59.85
46682;BME280;34101;53.430;-2.224;2023-04-03T07:51:25;102739.62;;;6.52;59.97
46682;BME280;34101;53.430;-2.224;2023-04-03T07:53:52;102743.79;;;6.61;59.41
46682;BME280;34101;53.430;-2.224;2023-04-03T07:56:20;102742.86;;;6.81;58.65
46682;BME280;34101;53.430;-2.224;2023-04-03T07:58:47;102741.13;;;6.89;58.98
46682;BME280;34101;53.430;-2.224;2023-04-03T08:01:15;102737.68;;;7.07;57.75
46682;BME280;34101;53.430;-2.224;2023-04-03T08:03:42;102736.51;;;7.00;57.74
46682;BME280;34101;53.430;-2.224;2023-04-03T08:06:10;102737.40;;;7.08;57.77
46682;BME280;34101;53.430;-2.224;2023-04-03T08:08:37;102737.83;;;7.28;57.08
46682;BME280;34101;53.430;-2.224;2023-04-03T08:11:05;102728.63;;;7.33;56.10
46682;BME280;34101;53.430;-2.224;2023-04-03T08:13:33;102735.95;;;7.17;56.69
46682;BME280;34101;53.430;-2.224;2023-04-03T08:17:08;102725.05;;;7.40;56.33
46682;BME280;34101;53.430;-2.224;2023-04-03T08:19:45;102730.89;;;7.60;56.11
46682;BME280;34101;53.430;-2.224;2023-04-03T08:22:13;102729.24;;;7.46;55.95
46682;BME280;34101;53.430;-2.224;2023-04-03T08:24:40;102729.08;;;7.61;55.60
46682;BME280;34101;53.430;-2.224;2023-04-03T08:27:08;102729.01;;;7.71;55.20
46682;BME280;34101;53.430;-2.224;2023-04-03T08:29:35;102728.65;;;7.96;54.55
46682;BME280;34101;53.430;-2.224;2023-04-03T08:32:03;102729.91;;;8.04;54.37
46682;BME280;34101;53.430;-2.224;2023-04-03T08:34:30;102725.85;;;8.40;53.91
46682;BME280;34101;53.430;-2.224;2023-04-03T08:36:58;102723.37;;;8.75;52.76
46682;BME280;34101;53.430;-2.224;2023-04-03T08:39:27;102723.23;;;9.10;52.12
46682;BME280;34101;53.430;-2.224;2023-04-03T08:42:07;102729.08;;;9.81;49.80
46682;BME280;34101;53.430;-2.224;2023-04-03T08:44:47;102723.49;;;10.53;48.06
46682;BME280;34101;53.430;-2.224;2023-04-03T08:47:23;102721.69;;;11.32;45.73
46682;BME280;34101;53.430;-2.224;2023-04-03T08:50:02;102719.63;;;12.00;44.08
46682;BME280;34101;53.430;-2.224;2023-04-03T08:52:41;102716.92;;;12.31;41.76
46682;BME280;34101;53.430;-2.224;2023-04-03T08:55:24;102728.24;;;12.70;41.75
46682;BME280;34101;53.430;-2.224;2023-04-03T08:57:59;102729.31;;;12.95;40.20
46682;BME280;34101;53.430;-2.224;2023-04-03T09:00:40;102730.99;;;12.92;40.13
46682;BME280;34101;53.430;-2.224;2023-04-03T09:03:13;102729.56;;;13.18;39.46
46682;BME280;34101;53.430;-2.224;2023-04-03T09:05:45;102730.53;;;12.93;39.41
46682;BME280;34101;53.430;-2.224;2023-04-03T09:08:22;102729.85;;;12.77;39.27
46682;BME280;34101;53.430;-2.224;2023-04-03T09:10:50;102726.07;;;13.22;38.44
46682;BME280;34101;53.430;-2.224;2023-04-03T09:13:26;102721.55;;;13.77;37.51
46682;BME280;34101;53.430;-2.224;2023-04-03T09:15:56;102724.87;;;13.83;37.05
46682;BME280;34101;53.430;-2.224;2023-04-03T09:18:28;102715.92;;;14.02;36.94
46682;BME280;34101;53.430;-2.224;2023-04-03T09:21:01;102716.35;;;14.33;36.38
46682;BME280;34101;53.430;-2.224;2023-04-03T09:23:34;102711.50;;;14.08;36.29
46682;BME280;34101;53.430;-2.224;2023-04-03T09:26:07;102710.91;;;14.54;36.21
46682;BME280;34101;53.430;-2.224;2023-04-03T09:28:39;102710.73;;;14.49;35.60
46682;BME280;34101;53.430;-2.224;2023-04-03T09:31:16;102706.39;;;14.84;34.85
46682;BME280;34101;53.430;-2.224;2023-04-03T09:33:44;102712.38;;;15.10;33.96
46682;BME280;34101;53.430;-2.224;2023-04-03T09:36:12;102701.74;;;15.29;33.71
46682;BME280;34101;53.430;-2.224;2023-04-03T09:38:39;102700.69;;;15.27;33.65
46682;BME280;34101;53.430;-2.224;2023-04-03T09:41:13;102702.41;;;15.54;33.33
46682;BME280;34101;53.430;-2.224;2023-04-03T09:43:51;102701.08;;;15.83;32.22
46682;BME280;34101;53.430;-2.224;2023-04-03T09:46:29;102694.68;;;15.80;32.36
46682;BME280;34101;53.430;-2.224;2023-04-03T09:48:58;102690.04;;;15.66;32.99
46682;BME280;34101;53.430;-2.224;2023-04-03T09:51:27;102692.37;;;16.02;32.83
46682;BME280;34101;53.430;-2.224;2023-04-03T09:53:55;102695.83;;;16.43;32.27
46682;BME280;34101;53.430;-2.224;2023-04-03T09:56:25;102690.46;;;16.96;31.31
46682;BME280;34101;53.430;-2.224;2023-04-03T09:59:08;102706.49;;;16.02;31.61
46682;BME280;34101;53.430;-2.224;2023-04-03T10:01:42;102685.87;;;17.14;30.37
46682;BME280;34101;53.430;-2.224;2023-04-03T10:04:12;102690.86;;;16.95;30.22
46682;BME280;34101;53.430;-2.224;2023-04-03T10:06:41;102684.60;;;16.94;30.53
46682;BME280;34101;53.430;-2.224;2023-04-03T10:09:18;102685.38;;;16.44;31.03
46682;BME280;34101;53.430;-2.224;2023-04-03T10:12:03;102695.85;;;15.93;31.86
46682;BME280;34101;53.430;-2.224;2023-04-03T10:14:31;102683.15;;;16.45;32.09
46682;BME280;34101;53.430;-2.224;2023-04-03T10:17:05;102691.12;;;16.92;31.17
46682;BME280;34101;53.430;-2.224;2023-04-03T10:19:40;102693.65;;;16.68;30.71
46682;BME280;34101;53.430;-2.224;2023-04-03T10:22:18;102694.34;;;16.96;31.07
46682;BME280;34101;53.430;-2.224;2023-04-03T10:24:58;102691.27;;;17.09;30.12
46682;BME280;34101;53.430;-2.224;2023-04-03T10:27:39;102690.60;;;17.03;30.59
46682;BME280;34101;53.430;-2.224;2023-04-03T10:30:20;102691.69;;;17.24;29.77
46682;BME280;34101;53.430;-2.224;2023-04-03T10:32:55;102692.77;;;17.09;30.12
46682;BME280;34101;53.430;-2.224;2023-04-03T10:35:37;102689.88;;;17.48;29.85
46682;BME280;34101;53.430;-2.224;2023-04-03T10:38:15;102689.09;;;17.57;28.87
46682;BME280;34101;53.430;-2.224;2023-04-03T10:40:53;102692.67;;;17.43;29.38
46682;BME280;34101;53.430;-2.224;2023-04-03T10:43:32;102685.92;;;17.89;29.16
46682;BME280;34101;53.430;-2.224;2023-04-03T10:46:04;102686.83;;;18.27;28.43
46682;BME280;34101;53.430;-2.224;2023-04-03T10:48:43;102683.18;;;17.94;28.57
46682;BME280;34101;53.430;-2.224;2023-04-03T10:51:23;102681.00;;;18.23;28.57
46682;BME280;34101;53.430;-2.224;2023-04-03T10:53:56;102675.69;;;18.82;27.91
46682;BME280;34101;53.430;-2.224;2023-04-03T10:56:31;102676.26;;;18.71;27.85
46682;BME280;34101;53.430;-2.224;2023-04-03T10:59:13;102675.68;;;18.39;28.62
46682;BME280;34101;53.430;-2.224;2023-04-03T11:01:46;102676.39;;;18.70;28.38
46682;BME280;34101;53.430;-2.224;2023-04-03T11:04:16;102675.62;;;18.72;27.99
46682;BME280;34101;53.430;-2.224;2023-04-03T11:06:49;102669.22;;;18.67;27.58
46682;BME280;34101;53.430;-2.224;2023-04-03T11:09:23;102674.30;;;18.59;27.61
46682;BME280;34101;53.430;-2.224;2023-04-03T11:11:56;102666.60;;;18.49;27.76
46682;BME280;34101;53.430;-2.224;2023-04-03T11:14:30;102665.68;;;18.58;27.47
46682;BME280;34101;53.430;-2.224;2023-04-03T11:17:11;102669.14;;;18.46;28.08
46682;BME280;34101;53.430;-2.224;2023-04-03T11:19:46;102665.53;;;18.60;27.40
46682;BME280;34101;53.430;-2.224;2023-04-03T11:22:22;102664.08;;;18.38;27.45
46682;BME280;34101;53.430;-2.224;2023-04-03T11:24:58;102658.17;;;18.60;27.77
46682;BME280;34101;53.430;-2.224;2023-04-03T11:27:27;102656.76;;;19.15;27.37
46682;BME280;34101;53.430;-2.224;2023-04-03T11:30:00;102655.15;;;19.42;27.01
46682;BME280;34101;53.430;-2.224;2023-04-03T11:32:44;102656.91;;;19.67;27.14
46682;BME280;34101;53.430;-2.224;2023-04-03T11:35:18;102653.71;;;19.70;26.16
46682;BME280;34101;53.430;-2.224;2023-04-03T11:37:49;102657.36;;;19.10;26.94
46682;BME280;34101;53.430;-2.224;2023-04-03T11:40:25;102651.89;;;18.89;26.98
46682;BME280;34101;53.430;-2.224;2023-04-03T11:43:02;102649.94;;;19.27;27.27
46682;BME280;34101;53.430;-2.224;2023-04-03T11:45:36;102646.36;;;19.02;27.46
46682;BME280;34101;53.430;-2.224;2023-04-03T11:48:09;102642.86;;;18.95;27.34
46682;BME280;34101;53.430;-2.224;2023-04-03T11:51:40;102635.10;;;18.18;28.06
46682;BME280;34101;53.430;-2.224;2023-04-03T11:55:44;102642.21;;;18.16;27.87
46682;BME280;34101;53.430;-2.224;2023-04-03T11:58:15;102631.61;;;18.81;27.54
46682;BME280;34101;53.430;-2.224;2023-04-03T12:01:43;102625.02;;;19.02;27.06
46682;BME280;34101;53.430;-2.224;2023-04-03T12:04:13;102622.48;;;19.30;27.24
46682;BME280;34101;53.430;-2.224;2023-04-03T12:08:21;102617.17;;;17.76;28.92
46682;BME280;34101;53.430;-2.224;2023-04-03T12:11:15;102620.51;;;17.56;28.80
46682;BME280;34101;53.430;-2.224;2023-04-03T12:14:04;102620.43;;;18.19;27.47
46682;BME280;34101;53.430;-2.224;2023-04-03T12:16:33;102609.75;;;18.14;27.96
46682;BME280;34101;53.430;-2.224;2023-04-03T12:19:31;102612.23;;;18.03;27.29
46682;BME280;34101;53.430;-2.224;2023-04-03T12:22:16;102607.43;;;16.99;29.93
46682;BME280;34101;53.430;-2.224;2023-04-03T12:24:45;102608.36;;;16.86;29.65
46682;BME280;34101;53.430;-2.224;2023-04-03T12:27:22;102603.67;;;16.81;29.69
46682;BME280;34101;53.430;-2.224;2023-04-03T12:29:55;102596.14;;;16.59;30.30
46682;BME280;34101;53.430;-2.224;2023-04-03T12:32:37;102596.81;;;16.23;31.70
46682;BME280;34101;53.430;-2.224;2023-04-03T12:35:16;102591.64;;;15.76;32.46
46682;BME280;34101;53.430;-2.224;2023-04-03T12:38:11;102585.83;;;15.89;32.41
46682;BME280;34101;53.430;-2.224;2023-04-03T12:40:48;102590.18;;;15.47;32.83
46682;BME280;34101;53.430;-2.224;2023-04-03T12:43:27;102590.95;;;15.21;33.16
46682;BME280;34101;53.430;-2.224;2023-04-03T12:46:02;102577.74;;;15.14;33.70
46682;BME280;34101;53.430;-2.224;2023-04-03T12:48:31;102569.63;;;14.53;35.93
46682;BME280;34101;53.430;-2.224;2023-04-03T12:51:00;102570.84;;;14.93;34.59
46682;BME280;34101;53.430;-2.224;2023-04-03T12:53:29;102572.26;;;14.94;34.55
46682;BME280;34101;53.430;-2.224;2023-04-03T12:56:19;102566.62;;;14.99;34.91
46682;BME280;34101;53.430;-2.224;2023-04-03T12:58:47;102567.12;;;14.85;35.05
46682;BME280;34101;53.430;-2.224;2023-04-03T13:01:18;102561.87;;;14.71;34.93
46682;BME280;34101;53.430;-2.224;2023-04-03T13:03:50;102555.54;;;14.79;34.93
46682;BME280;34101;53.430;-2.224;2023-04-03T13:06:22;102558.23;;;15.00;33.97
46682;BME280;34101;53.430;-2.224;2023-04-03T13:08:53;102546.46;;;15.06;34.96
46682;BME280;34101;53.430;-2.224;2023-04-03T13:11:21;102548.56;;;14.83;34.12